createdAt,value
2023-03-08T00:01:15.624Z,6.44
2023-03-08T00:03:42.769Z,6.45
2023-03-08T00:06:12.341Z,6.45
2023-03-08T00:08:39.292Z,6.44
2023-03-08T00:11:07.562Z,6.42
2023-03-08T00:13:34.492Z,6.40
2023-03-08T00:16:03.924Z,6.40
2023-03-08T00:18:30.659Z,6.39
2023-03-08T00:21:00.974Z,6.38
2023-03-08T00:23:27.793Z,6.38
2023-03-08T00:25:54.849Z,6.37
2023-03-08T00:28:21.696Z,6.37
2023-03-08T00:30:59.489Z,6.36
2023-03-08T00:33:27.207Z,6.36
2023-03-08T00:35:59.871Z,6.34
2023-03-08T00:38:26.545Z,6.36
2023-03-08T00:40:53.435Z,6.35
2023-03-08T00:43:20.604Z,6.35
2023-03-08T00:45:48.764Z,6.34
2023-03-08T00:48:16.898Z,6.34
2023-03-08T00:50:44.603Z,6.33
2023-03-08T00:53:11.894Z,6.32
2023-03-08T00:55:52.335Z,6.31
2023-03-08T00:58:20.096Z,6.29
2023-03-08T01:00:47.266Z,6.29
2023-03-08T01:03:14.490Z,6.28
2023-03-08T01:05:42.712Z,6.28
2023-03-08T01:08:09.636Z,6.27
2023-03-08T01:10:36.349Z,6.26
2023-03-08T01:13:04.937Z,6.26
2023-03-08T01:15:35.865Z,6.24
2023-03-08T01:18:05.490Z,6.24
2023-03-08T01:20:32.287Z,6.22
2023-03-08T01:22:58.987Z,6.22
2023-03-08T01:25:25.697Z,6.20
2023-03-08T01:27:52.494Z,6.18
2023-03-08T01:30:19.287Z,6.16
2023-03-08T01:32:45.980Z,6.16
2023-03-08T01:35:12.615Z,6.15
2023-03-08T01:37:39.270Z,6.15
2023-03-08T01:40:06.904Z,6.15
2023-03-08T01:42:33.657Z,6.13
2023-03-08T01:45:05.532Z,6.14
2023-03-08T01:47:33.588Z,6.13
2023-03-08T01:50:12.175Z,6.12
2023-03-08T01:52:49.000Z,6.10
2023-03-08T01:55:16.673Z,6.11
2023-03-08T01:57:50.126Z,6.09
2023-03-08T02:00:24.370Z,6.08
2023-03-08T02:02:59.996Z,6.08
2023-03-08T02:05:28.335Z,6.08
2023-03-08T02:08:01.077Z,6.07
2023-03-08T02:10:32.397Z,6.08
2023-03-08T02:12:59.123Z,6.07
2023-03-08T02:15:25.796Z,6.06
2023-03-08T02:17:55.938Z,6.07
2023-03-08T02:20:30.768Z,6.07
2023-03-08T02:23:13.953Z,6.04
2023-03-08T02:25:42.890Z,6.03
2023-03-08T02:28:09.527Z,6.03
2023-03-08T02:30:37.777Z,6.02
2023-03-08T02:33:04.479Z,6.03
2023-03-08T02:35:32.127Z,6.03
2023-03-08T02:37:58.807Z,6.04
2023-03-08T02:40:25.630Z,6.03
2023-03-08T02:42:53.608Z,6.04
2023-03-08T02:45:20.379Z,6.04
2023-03-08T02:47:47.010Z,6.03
2023-03-08T02:50:13.853Z,6.03
2023-03-08T02:52:40.510Z,6.04
2023-03-08T02:55:08.079Z,6.04
2023-03-08T02:57:34.773Z,6.03
2023-03-08T03:00:04.077Z,6.04
2023-03-08T03:02:33.027Z,6.05
2023-03-08T03:04:59.645Z,6.06
2023-03-08T03:07:28.153Z,6.06
2023-03-08T03:09:55.360Z,6.07
2023-03-08T03:12:22.097Z,6.08
2023-03-08T03:14:49.000Z,6.07
2023-03-08T03:17:16.170Z,6.07
2023-03-08T03:19:43.027Z,6.08
2023-03-08T03:22:09.722Z,6.08
2023-03-08T03:24:37.613Z,6.07
2023-03-08T03:27:06.094Z,6.08
2023-03-08T03:29:37.568Z,6.07
2023-03-08T03:32:14.555Z,6.09
2023-03-08T03:34:41.430Z,6.08
2023-03-08T03:37:08.585Z,6.08
2023-03-08T03:39:39.880Z,6.08
2023-03-08T03:42:09.980Z,6.09
2023-03-08T03:44:41.114Z,6.09
2023-03-08T03:47:11.175Z,6.09
2023-03-08T03:49:37.910Z,6.06
2023-03-08T03:52:04.774Z,6.05
2023-03-08T03:54:38.336Z,6.04
2023-03-08T03:57:05.166Z,6.05
2023-03-08T03:59:36.079Z,6.03
2023-03-08T04:02:03.440Z,6.00
2023-03-08T04:04:38.622Z,6.02
2023-03-08T04:07:05.781Z,6.03
2023-03-08T04:09:37.985Z,6.04
2023-03-08T04:12:12.374Z,6.05
2023-03-08T04:14:40.473Z,6.06
2023-03-08T04:17:08.867Z,6.08
2023-03-08T04:19:50.361Z,6.08
2023-03-08T04:22:18.321Z,6.09
2023-03-08T04:24:50.928Z,6.09
2023-03-08T04:27:23.811Z,6.09
2023-03-08T04:29:50.634Z,6.11
2023-03-08T04:32:17.470Z,6.11
2023-03-08T04:34:48.715Z,6.14
2023-03-08T04:37:19.146Z,6.15
2023-03-08T04:39:49.625Z,6.17
2023-03-08T04:42:17.489Z,6.20
2023-03-08T04:44:45.444Z,6.21
2023-03-08T04:47:14.460Z,6.23
2023-03-08T04:49:45.649Z,6.25
2023-03-08T04:52:13.011Z,6.26
2023-03-08T04:54:41.123Z,6.30
2023-03-08T04:57:16.321Z,6.30
2023-03-08T04:59:44.008Z,6.33
2023-03-08T05:02:11.618Z,6.35
2023-03-08T05:04:38.808Z,6.36
2023-03-08T05:07:06.506Z,6.37
2023-03-08T05:09:35.746Z,6.38
2023-03-08T05:12:02.475Z,6.39
2023-03-08T05:14:49.688Z,6.43
2023-03-08T05:17:16.813Z,6.44
2023-03-08T05:19:44.693Z,6.46
2023-03-08T05:22:13.507Z,6.47
2023-03-08T05:24:46.416Z,6.48
2023-03-08T05:27:14.186Z,6.50
2023-03-08T05:29:41.304Z,6.52
2023-03-08T05:32:12.302Z,6.55
2023-03-08T05:34:40.106Z,6.56
2023-03-08T05:37:10.250Z,6.57
2023-03-08T05:39:38.762Z,6.60
2023-03-08T05:42:14.246Z,6.61
2023-03-08T05:44:43.630Z,6.61
2023-03-08T05:47:12.572Z,6.63
2023-03-08T05:49:39.805Z,6.65
2023-03-08T05:52:07.545Z,6.69
2023-03-08T05:54:35.308Z,6.70
2023-03-08T05:57:07.432Z,6.69
2023-03-08T05:59:35.336Z,6.69
2023-03-08T06:02:03.936Z,6.70
2023-03-08T06:04:52.369Z,6.71
2023-03-08T06:07:21.656Z,6.72
2023-03-08T06:09:55.426Z,6.75
2023-03-08T06:12:23.454Z,6.77
2023-03-08T06:14:54.277Z,6.79
2023-03-08T06:17:23.674Z,6.81
2023-03-08T06:19:51.632Z,6.82
2023-03-08T06:22:18.843Z,6.64
2023-03-08T06:24:49.627Z,6.18
2023-03-08T06:27:20.934Z,5.72
2023-03-08T06:29:50.917Z,5.39
2023-03-08T06:32:18.039Z,5.28
2023-03-08T06:34:47.079Z,5.03
2023-03-08T06:37:14.505Z,5.00
2023-03-08T06:39:41.172Z,4.96
2023-03-08T06:42:08.136Z,4.96
2023-03-08T06:44:35.472Z,4.85
2023-03-08T06:47:02.107Z,4.82
2023-03-08T06:49:28.714Z,4.81
2023-03-08T06:51:55.487Z,4.79
2023-03-08T06:54:24.216Z,4.73
2023-03-08T06:56:51.207Z,4.79
2023-03-08T06:59:17.856Z,4.75
2023-03-08T07:01:44.642Z,4.61
2023-03-08T07:04:11.409Z,4.46
2023-03-08T07:06:38.161Z,4.43
2023-03-08T07:09:04.762Z,4.38
2023-03-08T07:11:33.952Z,4.43
2023-03-08T07:14:00.575Z,4.38
2023-03-08T07:16:27.280Z,4.45
2023-03-08T07:18:53.888Z,4.53
2023-03-08T07:21:20.610Z,4.57
2023-03-08T07:23:47.206Z,4.61
2023-03-08T07:26:13.826Z,4.75
2023-03-08T07:28:40.724Z,4.86
2023-03-08T07:31:11.165Z,4.91
2023-03-08T07:33:37.947Z,5.02
2023-03-08T07:36:04.929Z,5.11
2023-03-08T07:38:31.657Z,5.07
2023-03-08T07:40:58.289Z,5.17
2023-03-08T07:43:25.245Z,5.21
2023-03-08T07:45:59.333Z,5.29
2023-03-08T07:48:26.090Z,5.31
2023-03-08T07:50:52.734Z,5.26
2023-03-08T07:53:19.452Z,5.22
2023-03-08T07:55:46.136Z,5.19
2023-03-08T07:58:13.034Z,5.26
2023-03-08T08:00:39.697Z,5.26
2023-03-08T08:03:06.384Z,5.31
2023-03-08T08:05:35.520Z,5.35
2023-03-08T08:08:02.385Z,5.46
2023-03-08T08:10:29.568Z,5.66
2023-03-08T08:12:56.206Z,5.77
2023-03-08T08:15:25.257Z,5.79
2023-03-08T08:17:52.703Z,5.75
2023-03-08T08:20:19.304Z,5.76
2023-03-08T08:22:46.018Z,5.78
2023-03-08T08:25:12.686Z,5.82
2023-03-08T08:27:39.557Z,5.88
2023-03-08T08:30:07.028Z,5.96
2023-03-08T08:32:35.375Z,6.13
2023-03-08T08:35:02.247Z,6.25
2023-03-08T08:37:30.709Z,6.40
2023-03-08T08:39:57.642Z,6.54
2023-03-08T08:42:24.554Z,6.64
2023-03-08T08:44:53.136Z,6.79
2023-03-08T08:47:19.922Z,6.83
2023-03-08T08:49:46.504Z,6.79
2023-03-08T08:52:13.142Z,6.68
2023-03-08T08:54:40.141Z,6.71
2023-03-08T08:57:07.252Z,6.85
2023-03-08T08:59:34.146Z,6.96
2023-03-08T09:02:00.864Z,6.89
2023-03-08T09:04:27.440Z,6.90
2023-03-08T09:06:54.307Z,6.92
2023-03-08T09:09:21.029Z,7.09
2023-03-08T09:11:54.787Z,7.00
2023-03-08T09:14:22.599Z,7.01
2023-03-08T09:16:49.384Z,7.03
2023-03-08T09:19:16.247Z,7.07
2023-03-08T09:21:42.941Z,7.27
2023-03-08T09:24:11.417Z,7.39
2023-03-08T09:26:38.206Z,7.52
2023-03-08T09:29:05.689Z,7.62
2023-03-08T09:31:36.977Z,7.77
2023-03-08T09:34:09.485Z,7.84
2023-03-08T09:36:37.323Z,7.90
2023-03-08T09:39:04.129Z,7.95
2023-03-08T09:41:52.976Z,7.91
2023-03-08T09:44:35.077Z,7.95
2023-03-08T09:47:16.372Z,7.81
2023-03-08T09:49:45.513Z,7.70
2023-03-08T09:52:35.375Z,7.85
2023-03-08T09:55:03.376Z,8.10
2023-03-08T09:57:47.021Z,8.47
2023-03-08T10:00:23.602Z,8.61
2023-03-08T10:03:15.339Z,8.42
2023-03-08T10:05:42.023Z,8.69
2023-03-08T10:08:14.459Z,8.96
2023-03-08T10:10:47.147Z,9.09
2023-03-08T10:13:24.819Z,8.89
2023-03-08T10:15:53.016Z,8.88
2023-03-08T10:18:26.717Z,8.86
2023-03-08T10:20:53.396Z,9.08
2023-03-08T10:23:20.704Z,9.17
2023-03-08T10:25:47.843Z,9.15
2023-03-08T10:28:18.961Z,9.44
2023-03-08T10:30:48.519Z,9.41
2023-03-08T10:33:15.623Z,9.56
2023-03-08T10:35:45.047Z,9.47
2023-03-08T10:38:17.621Z,9.48
2023-03-08T10:40:44.264Z,9.18
2023-03-08T10:43:17.042Z,9.06
2023-03-08T10:45:43.637Z,8.97
2023-03-08T10:48:17.161Z,8.86
2023-03-08T10:50:43.809Z,8.85
2023-03-08T10:53:11.481Z,9.05
2023-03-08T10:55:47.222Z,9.11
2023-03-08T10:58:26.099Z,8.97
2023-03-08T11:00:53.154Z,8.80
2023-03-08T11:03:20.347Z,8.76
2023-03-08T11:05:54.396Z,8.85
2023-03-08T11:08:25.493Z,8.87
2023-03-08T11:11:01.875Z,8.82
2023-03-08T11:13:32.904Z,8.80
2023-03-08T11:16:03.110Z,9.12
2023-03-08T11:18:41.991Z,8.95
2023-03-08T11:21:43.991Z,9.02
2023-03-08T11:24:22.505Z,9.00
2023-03-08T11:27:01.808Z,9.01
2023-03-08T11:29:40.663Z,9.14
2023-03-08T11:32:16.265Z,9.13
2023-03-08T11:34:43.040Z,9.19
2023-03-08T11:37:21.865Z,9.19
2023-03-08T11:39:53.808Z,9.10
2023-03-08T11:42:41.543Z,8.98
2023-03-08T11:45:08.293Z,9.11
2023-03-08T11:48:12.325Z,9.13
2023-03-08T11:50:41.382Z,8.98
2023-03-08T11:53:26.509Z,9.13
2023-03-08T11:55:59.010Z,9.21
2023-03-08T11:58:33.535Z,9.23
2023-03-08T12:01:01.300Z,9.07
2023-03-08T12:03:33.494Z,9.26
2023-03-08T12:06:01.841Z,9.36
2023-03-08T12:08:35.354Z,9.40
2023-03-08T12:11:03.394Z,9.30
2023-03-08T12:13:34.059Z,9.28
2023-03-08T12:16:17.714Z,9.47
2023-03-08T12:19:03.098Z,10.14
2023-03-08T12:21:43.578Z,10.35
2023-03-08T12:24:16.368Z,10.65
2023-03-08T12:27:05.980Z,10.86
2023-03-08T12:29:39.799Z,10.86
2023-03-08T12:32:06.555Z,10.99
2023-03-08T12:34:37.417Z,10.93
2023-03-08T12:37:04.126Z,10.79
2023-03-08T12:39:31.741Z,10.63
2023-03-08T12:41:59.461Z,10.39
2023-03-08T12:44:26.747Z,10.38
2023-03-08T12:47:02.910Z,10.35
2023-03-08T12:49:32.220Z,10.16
2023-03-08T12:52:01.828Z,10.22
2023-03-08T12:54:29.428Z,10.12
2023-03-08T12:56:55.913Z,9.96
2023-03-08T12:59:22.435Z,10.14
2023-03-08T13:01:57.966Z,10.39
2023-03-08T13:04:50.822Z,10.41
2023-03-08T13:07:17.397Z,10.64
2023-03-08T13:09:46.917Z,11.01
2023-03-08T13:12:18.970Z,11.02
2023-03-08T13:14:46.609Z,11.01
2023-03-08T13:17:25.270Z,11.01
2023-03-08T13:19:51.935Z,11.02
2023-03-08T13:22:20.684Z,11.34
2023-03-08T13:24:48.583Z,11.51
2023-03-08T13:27:27.521Z,11.30
2023-03-08T13:29:55.141Z,11.20
2023-03-08T13:32:21.964Z,10.85
2023-03-08T13:34:58.451Z,10.58
2023-03-08T13:37:26.024Z,10.73
2023-03-08T13:39:56.111Z,10.74
2023-03-08T13:42:24.935Z,10.69
2023-03-08T13:44:52.397Z,10.69
2023-03-08T13:47:18.931Z,10.70
2023-03-08T13:49:46.096Z,10.67
2023-03-08T13:52:32.909Z,10.65
2023-03-08T13:55:01.772Z,10.56
2023-03-08T13:57:29.262Z,10.70
2023-03-08T13:59:56.922Z,10.94
2023-03-08T14:02:27.498Z,11.17
2023-03-08T14:04:54.222Z,11.36
2023-03-08T14:07:28.398Z,11.47
2023-03-08T14:09:55.174Z,11.64
2023-03-08T14:12:22.565Z,11.71
2023-03-08T14:15:07.495Z,11.56
2023-03-08T14:17:34.631Z,11.26
2023-03-08T14:20:02.179Z,11.14
2023-03-08T14:22:39.093Z,11.10
2023-03-08T14:25:07.260Z,10.76
2023-03-08T14:27:45.184Z,10.61
2023-03-08T14:30:19.625Z,10.56
2023-03-08T14:33:00.271Z,10.51
2023-03-08T14:35:27.749Z,10.61
2023-03-08T14:37:58.495Z,10.58
2023-03-08T14:40:32.312Z,10.44
2023-03-08T14:43:04.572Z,10.48
2023-03-08T14:45:31.391Z,10.45
2023-03-08T14:47:58.682Z,10.41
2023-03-08T14:50:30.795Z,10.49
2023-03-08T14:52:58.064Z,10.57
2023-03-08T14:55:26.750Z,10.64
2023-03-08T14:57:56.432Z,10.83
2023-03-08T15:00:24.758Z,10.82
2023-03-08T15:02:51.278Z,10.83
2023-03-08T15:05:28.367Z,10.62
2023-03-08T15:07:55.945Z,10.56
2023-03-08T15:10:37.229Z,10.45
2023-03-08T15:13:04.580Z,10.38
2023-03-08T15:15:31.108Z,10.38
2023-03-08T15:17:57.721Z,10.35
2023-03-08T15:20:25.145Z,10.30
2023-03-08T15:22:52.963Z,10.23
2023-03-08T15:25:24.011Z,10.18
2023-03-08T15:27:50.640Z,10.16
2023-03-08T15:30:18.736Z,10.16
2023-03-08T15:32:45.412Z,10.05
2023-03-08T15:35:12.340Z,9.98
2023-03-08T15:37:39.238Z,9.80
2023-03-08T15:40:09.481Z,9.70
2023-03-08T15:42:36.116Z,9.57
2023-03-08T15:45:02.548Z,9.50
2023-03-08T15:47:29.097Z,9.51
2023-03-08T15:49:55.599Z,9.67
2023-03-08T15:52:24.665Z,10.00
2023-03-08T15:54:52.720Z,10.14
2023-03-08T15:57:19.313Z,10.34
2023-03-08T15:59:45.883Z,10.46
2023-03-08T16:02:16.398Z,10.57
2023-03-08T16:04:45.752Z,10.52
2023-03-08T16:07:13.526Z,10.35
2023-03-08T16:09:40.312Z,10.31
2023-03-08T16:12:06.966Z,10.20
2023-03-08T16:14:33.927Z,9.96
2023-03-08T16:17:00.490Z,9.95
2023-03-08T16:19:30.652Z,9.90
2023-03-08T16:21:57.173Z,9.93
2023-03-08T16:24:23.688Z,10.05
2023-03-08T16:26:50.287Z,9.90
2023-03-08T16:29:16.966Z,10.11
2023-03-08T16:31:43.638Z,10.26
2023-03-08T16:34:10.721Z,10.33
2023-03-08T16:36:37.421Z,10.15
2023-03-08T16:39:05.597Z,10.10
2023-03-08T16:41:35.788Z,10.03
2023-03-08T16:44:02.325Z,10.07
2023-03-08T16:46:29.209Z,9.95
2023-03-08T16:48:56.108Z,10.25
2023-03-08T16:51:27.326Z,10.32
2023-03-08T16:53:54.091Z,10.03
2023-03-08T16:56:29.707Z,10.09
2023-03-08T16:58:57.692Z,9.95
2023-03-08T17:01:24.562Z,9.92
2023-03-08T17:03:51.453Z,9.87
2023-03-08T17:06:19.090Z,9.84
2023-03-08T17:08:45.947Z,9.87
2023-03-08T17:11:15.569Z,10.00
2023-03-08T17:13:42.235Z,9.87
2023-03-08T17:16:10.987Z,9.79
2023-03-08T17:18:37.496Z,9.79
2023-03-08T17:21:05.334Z,9.84
2023-03-08T17:23:31.870Z,9.76
2023-03-08T17:25:58.604Z,9.74
2023-03-08T17:28:25.123Z,9.84
2023-03-08T17:30:51.841Z,9.80
2023-03-08T17:33:18.542Z,9.79
2023-03-08T17:35:45.375Z,9.76
2023-03-08T17:38:12.239Z,9.71
2023-03-08T17:40:40.328Z,9.69
2023-03-08T17:43:07.006Z,9.77
2023-03-08T17:45:33.685Z,9.84
2023-03-08T17:48:02.721Z,9.89
2023-03-08T17:50:32.208Z,9.97
2023-03-08T17:52:58.889Z,10.13
2023-03-08T17:55:25.724Z,10.09
2023-03-08T17:57:52.538Z,10.04
2023-03-08T18:00:19.753Z,10.12
2023-03-08T18:02:46.574Z,10.23
2023-03-08T18:05:13.486Z,10.32
2023-03-08T18:07:41.886Z,10.40
2023-03-08T18:10:11.032Z,10.46
2023-03-08T18:12:37.725Z,10.54
2023-03-08T18:15:04.866Z,10.58
2023-03-08T18:17:34.136Z,10.62
2023-03-08T18:20:01.388Z,10.67
2023-03-08T18:22:28.024Z,10.70
2023-03-08T18:24:54.577Z,10.73
2023-03-08T18:27:21.288Z,10.77
2023-03-08T18:29:48.042Z,10.78
2023-03-08T18:32:14.749Z,10.83
2023-03-08T18:34:41.621Z,10.85
2023-03-08T18:37:08.325Z,10.88
2023-03-08T18:39:35.042Z,10.91
2023-03-08T18:42:02.272Z,10.93
2023-03-08T18:44:28.924Z,10.96
2023-03-08T18:46:55.709Z,10.97
2023-03-08T18:49:22.555Z,11.00
2023-03-08T18:51:49.438Z,11.01
2023-03-08T18:54:17.434Z,11.03
2023-03-08T18:56:44.675Z,11.05
2023-03-08T18:59:13.652Z,11.07
2023-03-08T19:01:40.792Z,11.10
2023-03-08T19:04:08.153Z,11.11
2023-03-08T19:06:36.112Z,11.14
2023-03-08T19:09:10.147Z,11.15
2023-03-08T19:11:36.998Z,11.18
2023-03-08T19:14:03.676Z,11.20
2023-03-08T19:16:32.546Z,11.21
2023-03-08T19:19:05.535Z,11.23
2023-03-08T19:21:38.286Z,11.25
2023-03-08T19:24:05.198Z,11.27
2023-03-08T19:26:37.351Z,11.29
2023-03-08T19:29:16.927Z,11.32
2023-03-08T19:31:46.337Z,11.31
2023-03-08T19:34:13.827Z,11.34
2023-03-08T19:36:41.835Z,11.35
2023-03-08T19:39:11.116Z,11.37
2023-03-08T19:41:37.882Z,11.37
2023-03-08T19:44:07.061Z,11.39
2023-03-08T19:46:35.309Z,11.40
2023-03-08T19:49:02.239Z,11.42
2023-03-08T19:51:28.867Z,11.41
2023-03-08T19:53:55.869Z,11.42
2023-03-08T19:56:24.454Z,11.42
2023-03-08T19:58:56.849Z,11.43
2023-03-08T20:01:24.075Z,11.46
2023-03-08T20:03:50.896Z,11.48
2023-03-08T20:06:47.544Z,11.48
2023-03-08T20:09:21.526Z,11.49
2023-03-08T20:11:57.460Z,11.49
2023-03-08T20:14:27.052Z,11.49
2023-03-08T20:16:54.150Z,11.50
2023-03-08T20:19:21.052Z,11.50
2023-03-08T20:21:48.369Z,11.49
2023-03-08T20:24:18.254Z,11.51
2023-03-08T20:26:45.528Z,11.51
2023-03-08T20:29:12.167Z,11.53
2023-03-08T20:31:38.928Z,11.55
2023-03-08T20:34:05.570Z,11.52
2023-03-08T20:36:32.360Z,11.52
2023-03-08T20:38:59.956Z,11.54
2023-03-08T20:41:27.911Z,11.57
2023-03-08T20:43:57.590Z,11.58
2023-03-08T20:46:27.529Z,11.58
2023-03-08T20:48:54.418Z,11.60
2023-03-08T20:51:22.231Z,11.62
2023-03-08T20:53:52.696Z,11.64
2023-03-08T20:56:21.449Z,11.65
2023-03-08T20:58:48.429Z,11.65
2023-03-08T21:01:33.361Z,11.67
2023-03-08T21:04:00.269Z,11.68
2023-03-08T21:06:30.739Z,11.67
2023-03-08T21:08:57.560Z,11.69
2023-03-08T21:11:24.199Z,11.67
2023-03-08T21:13:51.779Z,11.68
2023-03-08T21:16:20.762Z,11.68
2023-03-08T21:18:51.166Z,11.70
2023-03-08T21:21:30.147Z,11.71
2023-03-08T21:23:58.639Z,11.72
2023-03-08T21:26:26.659Z,11.72
2023-03-08T21:28:55.851Z,11.74
2023-03-08T21:31:23.550Z,11.76
2023-03-08T21:33:50.203Z,11.77
2023-03-08T21:36:17.288Z,11.77
2023-03-08T21:38:44.328Z,11.77
2023-03-08T21:41:22.014Z,11.79
2023-03-08T21:43:48.809Z,11.79
2023-03-08T21:46:16.004Z,11.79
2023-03-08T21:48:42.702Z,11.80
2023-03-08T21:51:10.462Z,11.79
2023-03-08T21:53:37.633Z,11.80
2023-03-08T21:56:08.914Z,11.80
2023-03-08T21:58:36.633Z,11.83
2023-03-08T22:01:03.877Z,11.82
2023-03-08T22:03:31.344Z,11.82
2023-03-08T22:05:58.261Z,11.80
2023-03-08T22:08:25.208Z,11.81
2023-03-08T22:10:52.867Z,11.83
2023-03-08T22:13:19.797Z,11.84
2023-03-08T22:15:46.546Z,11.85
2023-03-08T22:18:13.252Z,11.85
2023-03-08T22:20:39.891Z,11.86
2023-03-08T22:23:06.553Z,11.86
2023-03-08T22:25:33.312Z,11.87
2023-03-08T22:28:00.318Z,11.88
2023-03-08T22:30:27.044Z,11.87
2023-03-08T22:32:54.468Z,11.86
2023-03-08T22:35:22.176Z,11.86
2023-03-08T22:37:49.378Z,11.85
2023-03-08T22:40:18.374Z,11.85
2023-03-08T22:42:46.172Z,11.86
2023-03-08T22:45:13.582Z,11.86
2023-03-08T22:47:40.331Z,11.86
2023-03-08T22:50:07.328Z,11.87
2023-03-08T22:52:34.029Z,11.88
2023-03-08T22:55:00.795Z,11.91
2023-03-08T22:57:27.455Z,11.93
2023-03-08T22:59:58.394Z,11.93
2023-03-08T23:02:25.501Z,11.87
2023-03-08T23:04:52.105Z,11.91
2023-03-08T23:07:18.868Z,11.89
2023-03-08T23:09:45.507Z,11.90
2023-03-08T23:12:12.228Z,11.92
2023-03-08T23:14:38.874Z,11.94
2023-03-08T23:17:05.765Z,11.93
2023-03-08T23:19:32.330Z,11.94
2023-03-08T23:21:59.048Z,11.92
